createdAt,value
2019-01-12T00:00:34.589Z,-0.70
2019-01-12T00:03:03.058Z,-0.70
2019-01-12T00:05:31.625Z,-0.70
2019-01-12T00:08:00.108Z,-0.70
2019-01-12T00:10:28.585Z,-0.60
2019-01-12T00:12:57.156Z,-0.60
2019-01-12T00:15:25.633Z,-0.50
2019-01-12T00:17:54.118Z,-0.50
2019-01-12T00:20:22.693Z,-0.50
2019-01-12T00:22:51.183Z,-0.40
2019-01-12T00:25:19.677Z,-0.50
2019-01-12T00:27:48.324Z,-0.50
2019-01-12T00:30:16.933Z,-0.40
2019-01-12T00:32:45.473Z,-0.40
2019-01-12T00:35:14.024Z,-0.50
2019-01-12T00:37:42.496Z,-0.50
2019-01-12T00:40:11.099Z,-0.50
2019-01-12T00:42:39.588Z,-0.60
2019-01-12T00:45:11.356Z,-0.50
2019-01-12T00:47:39.997Z,-0.50
2019-01-12T00:50:11.508Z,-0.50
2019-01-12T00:52:40.149Z,-0.40
2019-01-12T00:55:08.740Z,-0.40
2019-01-12T00:57:37.209Z,-0.40
2019-01-12T01:00:11.457Z,-0.40
2019-01-12T01:02:39.934Z,-0.40
2019-01-12T01:05:09.477Z,-0.40
2019-01-12T01:07:38.096Z,-0.40
2019-01-12T01:10:09.607Z,-0.40
2019-01-12T01:12:38.085Z,-0.40
2019-01-12T01:15:09.085Z,-0.40
2019-01-12T01:17:37.765Z,-0.40
2019-01-12T01:20:08.885Z,-0.30
2019-01-12T01:22:37.432Z,-0.30
2019-01-12T01:25:07.753Z,-0.20
2019-01-12T01:27:36.260Z,-0.20
2019-01-12T01:30:07.772Z,-0.20
2019-01-12T01:32:36.240Z,-0.20
2019-01-12T01:35:06.577Z,-0.20
2019-01-12T01:37:35.217Z,-0.20
2019-01-12T01:40:04.889Z,-0.20
2019-01-12T01:42:33.396Z,-0.20
2019-01-12T01:45:01.877Z,-0.20
2019-01-12T01:47:30.344Z,-0.20
2019-01-12T01:49:58.829Z,-0.20
2019-01-12T01:52:27.389Z,-0.20
2019-01-12T01:54:55.864Z,-0.30
2019-01-12T01:57:24.356Z,-0.20
2019-01-12T01:59:52.821Z,-0.20
2019-01-12T02:02:21.298Z,-0.20
2019-01-12T02:04:49.809Z,-0.20
2019-01-12T02:07:18.282Z,-0.30
2019-01-12T02:09:46.762Z,-0.20
2019-01-12T02:12:15.249Z,-0.20
2019-01-12T02:14:43.720Z,-0.20
2019-01-12T02:17:12.208Z,-0.20
2019-01-12T02:19:40.706Z,-0.10
2019-01-12T02:22:09.300Z,-0.10
2019-01-12T02:24:37.772Z,-0.10
2019-01-12T02:27:06.258Z,-0.10
2019-01-12T02:29:34.738Z,-0.10
2019-01-12T02:32:03.195Z,0.00
2019-01-12T02:34:31.677Z,0.00
2019-01-12T02:37:00.138Z,0.00
2019-01-12T02:39:28.633Z,-0.10
2019-01-12T02:41:57.105Z,0.00
2019-01-12T02:44:25.678Z,0.00
2019-01-12T02:46:54.208Z,0.00
2019-01-12T02:49:22.680Z,-0.10
2019-01-12T02:51:51.251Z,-0.10
2019-01-12T02:54:19.737Z,-0.20
2019-01-12T02:56:48.233Z,-0.20
2019-01-12T02:59:16.728Z,-0.20
2019-01-12T03:01:45.285Z,-0.20
2019-01-12T03:04:13.774Z,-0.20
2019-01-12T03:06:42.236Z,-0.20
2019-01-12T03:09:10.769Z,-0.20
2019-01-12T03:11:39.284Z,-0.20
2019-01-12T03:14:07.861Z,-0.30
2019-01-12T03:16:36.344Z,-0.30
2019-01-12T03:19:04.826Z,-0.40
2019-01-12T03:21:33.358Z,-0.40
2019-01-12T03:24:01.866Z,-0.40
2019-01-12T03:26:30.346Z,-0.40
2019-01-12T03:28:58.835Z,-0.40
2019-01-12T03:31:27.340Z,-0.50
2019-01-12T03:33:55.958Z,-0.60
2019-01-12T03:36:24.576Z,-0.60
2019-01-12T03:38:53.053Z,-0.60
2019-01-12T03:41:21.557Z,-0.60
2019-01-12T03:43:50.126Z,-0.60
2019-01-12T03:46:19.124Z,-0.60
2019-01-12T03:48:47.620Z,-0.60
2019-01-12T03:51:16.073Z,-0.60
2019-01-12T03:53:44.533Z,-0.60
2019-01-12T03:56:13.048Z,-0.60
2019-01-12T03:58:41.529Z,-0.50
2019-01-12T04:01:10.149Z,-0.50
2019-01-12T04:03:38.645Z,-0.50
2019-01-12T04:06:07.116Z,-0.50
2019-01-12T04:08:35.585Z,-0.50
2019-01-12T04:11:04.168Z,-0.50
2019-01-12T04:13:32.623Z,-0.50
2019-01-12T04:16:01.134Z,-0.40
2019-01-12T04:18:29.604Z,-0.50
2019-01-12T04:20:58.098Z,-0.50
2019-01-12T04:23:26.669Z,-0.50
2019-01-12T04:25:56.320Z,-0.50
2019-01-12T04:28:24.794Z,-0.50
2019-01-12T04:30:53.360Z,-0.40
2019-01-12T04:33:21.837Z,-0.50
2019-01-12T04:35:50.440Z,-0.50
2019-01-12T04:38:18.957Z,-0.50
2019-01-12T04:40:47.457Z,-0.60
2019-01-12T04:43:15.921Z,-0.60
2019-01-12T04:45:44.425Z,-0.60
2019-01-12T04:48:12.917Z,-0.60
2019-01-12T04:50:41.481Z,-0.60
2019-01-12T04:53:09.970Z,-0.60
2019-01-12T04:55:41.612Z,-0.50
2019-01-12T04:58:08.686Z,-0.50
2019-01-12T05:00:37.162Z,-0.50
2019-01-12T05:03:05.649Z,-0.60
2019-01-12T05:05:34.139Z,-0.60
2019-01-12T05:08:02.606Z,-0.60
2019-01-12T05:10:31.125Z,-0.60
2019-01-12T05:12:59.604Z,-0.60
2019-01-12T05:15:28.104Z,-0.60
2019-01-12T05:17:56.600Z,-0.60
2019-01-12T05:20:25.073Z,-0.60
2019-01-12T05:22:53.648Z,-0.60
2019-01-12T05:25:22.200Z,-0.50
2019-01-12T05:27:50.746Z,-0.50
2019-01-12T05:30:20.164Z,-0.40
2019-01-12T05:32:48.719Z,-0.40
2019-01-12T05:35:17.201Z,-0.40
2019-01-12T05:37:45.769Z,-0.40
2019-01-12T05:40:16.275Z,-0.40
2019-01-12T05:42:44.889Z,-0.40
2019-01-12T05:45:14.068Z,-0.40
2019-01-12T05:47:42.558Z,-0.40
2019-01-12T05:50:12.778Z,-0.50
2019-01-12T05:52:41.361Z,-0.40
2019-01-12T05:55:10.085Z,-0.40
2019-01-12T05:57:38.549Z,-0.40
2019-01-12T06:00:16.220Z,-0.30
2019-01-12T06:02:44.714Z,-0.30
2019-01-12T06:05:13.386Z,-0.30
2019-01-12T06:07:41.876Z,-0.30
2019-01-12T06:10:12.122Z,-0.30
2019-01-12T06:12:40.605Z,-0.30
2019-01-12T06:15:11.007Z,-0.30
2019-01-12T06:17:39.705Z,-0.20
2019-01-12T06:20:11.121Z,-0.20
2019-01-12T06:22:39.689Z,-0.10
2019-01-12T06:25:08.294Z,0.00
2019-01-12T06:27:36.845Z,0.00
2019-01-12T06:30:08.382Z,0.00
2019-01-12T06:32:36.852Z,0.00
2019-01-12T06:35:05.501Z,0.00
2019-01-12T06:37:33.993Z,-0.10
2019-01-12T06:40:02.632Z,0.00
2019-01-12T06:42:31.133Z,0.00
2019-01-12T06:44:59.629Z,0.00
2019-01-12T06:47:28.098Z,0.00
2019-01-12T06:49:56.660Z,0.00
2019-01-12T06:52:25.139Z,0.00
2019-01-12T06:54:53.665Z,0.00
2019-01-12T06:57:22.156Z,0.10
2019-01-12T06:59:50.633Z,0.10
2019-01-12T07:02:19.112Z,0.10
2019-01-12T07:04:47.584Z,0.10
2019-01-12T07:07:16.040Z,0.10
2019-01-12T07:09:44.536Z,0.00
2019-01-12T07:12:13.012Z,0.00
2019-01-12T07:14:41.501Z,0.00
2019-01-12T07:17:10.065Z,0.00
2019-01-12T07:19:38.621Z,0.00
2019-01-12T07:22:07.083Z,0.00
2019-01-12T07:24:35.533Z,0.10
2019-01-12T07:27:04.108Z,0.00
2019-01-12T07:29:32.568Z,0.10
2019-01-12T07:32:01.032Z,0.10
2019-01-12T07:34:29.545Z,0.10
2019-01-12T07:36:58.104Z,0.20
2019-01-12T07:39:26.584Z,0.10
2019-01-12T07:41:55.049Z,0.10
2019-01-12T07:44:23.556Z,0.10
2019-01-12T07:46:52.064Z,0.10
2019-01-12T07:49:20.568Z,0.10
2019-01-12T07:51:49.042Z,0.10
2019-01-12T07:54:17.504Z,0.10
2019-01-12T07:56:45.962Z,0.10
2019-01-12T07:59:14.465Z,0.10
2019-01-12T08:01:42.909Z,0.10
2019-01-12T08:04:11.449Z,0.10
2019-01-12T08:06:39.952Z,0.20
2019-01-12T08:09:09.153Z,0.30
2019-01-12T08:11:37.637Z,0.30
2019-01-12T08:14:06.176Z,0.30
2019-01-12T08:16:34.684Z,0.20
2019-01-12T08:19:03.234Z,0.30
2019-01-12T08:21:31.797Z,0.30
2019-01-12T08:24:00.278Z,0.30
2019-01-12T08:26:31.228Z,0.30
2019-01-12T08:28:58.969Z,0.30
2019-01-12T08:31:27.444Z,0.40
2019-01-12T08:33:55.992Z,0.50
2019-01-12T08:36:24.500Z,0.50
2019-01-12T08:38:53.004Z,0.60
2019-01-12T08:41:21.473Z,0.60
2019-01-12T08:43:49.949Z,0.60
2019-01-12T08:46:18.501Z,0.50
2019-01-12T08:48:47.025Z,0.50
2019-01-12T08:51:17.085Z,0.60
2019-01-12T08:53:45.540Z,0.50
2019-01-12T08:56:14.022Z,0.50
2019-01-12T08:58:42.504Z,0.60
2019-01-12T09:01:10.973Z,0.70
2019-01-12T09:03:39.457Z,0.80
2019-01-12T09:06:08.013Z,0.80
2019-01-12T09:08:36.505Z,0.90
2019-01-12T09:11:05.148Z,1.00
2019-01-12T09:13:33.627Z,1.00
2019-01-12T09:16:02.086Z,1.10
2019-01-12T09:18:30.590Z,1.20
2019-01-12T09:20:59.076Z,1.30
2019-01-12T09:23:27.540Z,1.30
2019-01-12T09:25:56.084Z,1.30
2019-01-12T09:28:24.580Z,1.20
2019-01-12T09:30:53.047Z,1.20
2019-01-12T09:33:21.550Z,1.20
2019-01-12T09:35:50.240Z,1.20
2019-01-12T09:38:18.861Z,1.20
2019-01-12T09:40:47.344Z,1.20
2019-01-12T09:43:15.816Z,1.20
2019-01-12T09:45:44.305Z,1.30
2019-01-12T09:48:12.808Z,1.40
2019-01-12T09:50:41.270Z,1.40
2019-01-12T09:53:09.800Z,1.30
2019-01-12T09:55:38.304Z,1.30
2019-01-12T09:58:06.781Z,1.40
2019-01-12T10:00:36.164Z,1.40
2019-01-12T10:03:04.668Z,1.60
2019-01-12T10:05:33.272Z,1.60
2019-01-12T10:08:01.745Z,1.70
2019-01-12T10:10:30.304Z,1.80
2019-01-12T10:12:58.816Z,1.80
2019-01-12T10:15:27.333Z,1.90
2019-01-12T10:17:55.813Z,1.90
2019-01-12T10:20:24.883Z,1.90
2019-01-12T10:22:53.444Z,1.90
2019-01-12T10:25:22.022Z,1.90
2019-01-12T10:27:50.548Z,1.90
2019-01-12T10:30:21.535Z,1.70
2019-01-12T10:32:50.274Z,1.60
2019-01-12T10:35:18.897Z,1.60
2019-01-12T10:37:47.517Z,1.60
2019-01-12T10:40:18.461Z,1.70
2019-01-12T10:42:47.125Z,1.70
2019-01-12T10:45:18.405Z,1.70
2019-01-12T10:47:47.512Z,1.70
2019-01-12T10:50:27.666Z,1.80
2019-01-12T10:52:56.209Z,2.00
2019-01-12T10:55:24.692Z,2.20
2019-01-12T10:57:53.160Z,2.30
2019-01-12T11:00:27.633Z,2.40
2019-01-12T11:02:56.177Z,2.40
2019-01-12T11:05:24.734Z,2.30
2019-01-12T11:07:53.207Z,2.30
2019-01-12T11:10:21.840Z,2.20
2019-01-12T11:12:50.337Z,2.30
2019-01-12T11:15:21.254Z,2.30
2019-01-12T11:17:50.200Z,2.30
2019-01-12T11:20:18.804Z,2.30
2019-01-12T11:22:47.431Z,2.30
2019-01-12T11:25:16.467Z,2.30
2019-01-12T11:27:45.004Z,2.30
2019-01-12T11:30:18.650Z,2.30
2019-01-12T11:32:47.227Z,2.30
2019-01-12T11:35:15.948Z,2.30
2019-01-12T11:37:45.265Z,2.40
2019-01-12T11:40:16.823Z,2.40
2019-01-12T11:42:45.448Z,2.30
2019-01-12T11:45:14.863Z,2.40
2019-01-12T11:47:48.657Z,2.40
2019-01-12T11:50:17.399Z,2.50
2019-01-12T11:52:46.386Z,2.50
2019-01-12T11:55:16.604Z,2.50
2019-01-12T11:57:45.295Z,2.40
2019-01-12T12:00:19.380Z,2.40
2019-01-12T12:02:47.918Z,2.30
2019-01-12T12:05:17.353Z,2.40
2019-01-12T12:07:46.153Z,2.30
2019-01-12T12:10:16.351Z,2.30
2019-01-12T12:12:44.901Z,2.30
2019-01-12T12:15:16.165Z,2.30
2019-01-12T12:17:44.792Z,2.30
2019-01-12T12:20:16.266Z,2.40
2019-01-12T12:22:44.750Z,2.50
2019-01-12T12:25:13.997Z,2.50
2019-01-12T12:27:42.528Z,2.50
2019-01-12T12:30:16.551Z,2.50
2019-01-12T12:32:45.094Z,2.40
2019-01-12T12:35:13.641Z,2.20
2019-01-12T12:37:42.195Z,2.00
2019-01-12T12:40:13.884Z,1.90
2019-01-12T12:42:42.372Z,1.90
2019-01-12T12:45:14.156Z,1.90
2019-01-12T12:47:42.856Z,1.90
2019-01-12T12:50:13.686Z,1.90
2019-01-12T12:52:42.294Z,1.90
2019-01-12T12:55:13.208Z,1.90
2019-01-12T12:57:41.900Z,2.00
2019-01-12T13:00:15.996Z,2.00
2019-01-12T13:02:44.704Z,2.00
2019-01-12T13:05:13.229Z,1.90
2019-01-12T13:07:41.940Z,1.90
2019-01-12T13:10:17.881Z,1.90
2019-01-12T13:12:46.536Z,1.90
2019-01-12T13:15:15.944Z,1.90
2019-01-12T13:17:44.585Z,1.90
2019-01-12T13:20:18.452Z,1.90
2019-01-12T13:22:47.452Z,1.90
2019-01-12T13:25:16.472Z,1.90
2019-01-12T13:27:45.117Z,2.00
2019-01-12T13:30:19.194Z,2.20
2019-01-12T13:32:47.709Z,2.30
2019-01-12T13:35:16.268Z,2.30
2019-01-12T13:37:44.811Z,2.40
2019-01-12T13:40:19.016Z,2.40
2019-01-12T13:42:47.485Z,2.40
2019-01-12T13:45:18.112Z,2.50
2019-01-12T13:47:46.675Z,2.60
2019-01-12T13:50:20.882Z,2.70
2019-01-12T13:52:49.530Z,2.70
2019-01-12T13:55:18.089Z,2.80
2019-01-12T13:57:48.200Z,2.80
2019-01-12T14:00:22.756Z,2.80
2019-01-12T14:02:51.309Z,2.80
2019-01-12T14:05:19.849Z,2.80
2019-01-12T14:07:48.481Z,2.70
2019-01-12T14:10:19.568Z,2.70
2019-01-12T14:12:48.105Z,2.60
2019-01-12T14:15:18.306Z,2.50
2019-01-12T14:17:47.045Z,2.50
2019-01-12T14:20:21.358Z,2.60
2019-01-12T14:22:49.818Z,2.50
2019-01-12T14:25:18.390Z,2.50
2019-01-12T14:27:54.335Z,2.50
2019-01-12T14:30:19.453Z,2.40
2019-01-12T14:32:48.028Z,2.40
2019-01-12T14:35:18.335Z,2.50
2019-01-12T14:37:47.117Z,2.40
2019-01-12T14:40:18.217Z,2.40
2019-01-12T14:42:46.833Z,2.40
2019-01-12T14:45:27.120Z,2.40
2019-01-12T14:47:55.922Z,2.30
2019-01-12T14:50:24.697Z,2.30
2019-01-12T14:52:53.232Z,2.40
2019-01-12T14:55:22.960Z,2.40
2019-01-12T14:57:51.573Z,2.30
2019-01-12T15:00:25.363Z,2.30
2019-01-12T15:02:54.072Z,2.40
2019-01-12T15:05:25.061Z,2.60
2019-01-12T15:07:53.673Z,2.60
2019-01-12T15:10:22.283Z,2.50
2019-01-12T15:12:51.666Z,2.50
2019-01-12T15:15:20.475Z,2.40
2019-01-12T15:17:49.135Z,2.30
2019-01-12T15:20:20.518Z,2.20
2019-01-12T15:22:49.174Z,2.20
2019-01-12T15:25:17.817Z,2.20
2019-01-12T15:27:51.460Z,2.10
2019-01-12T15:30:25.141Z,2.00
2019-01-12T15:32:53.689Z,2.00
2019-01-12T15:35:23.993Z,2.00
2019-01-12T15:37:52.475Z,2.00
2019-01-12T15:40:22.388Z,2.00
2019-01-12T15:42:50.853Z,2.00
2019-01-12T15:45:27.000Z,1.90
2019-01-12T15:47:55.629Z,1.90
2019-01-12T15:50:26.620Z,1.90
2019-01-12T15:52:55.385Z,1.90
2019-01-12T15:55:24.563Z,1.90
2019-01-12T15:57:53.177Z,1.90
2019-01-12T16:00:24.106Z,1.90
2019-01-12T16:02:52.658Z,1.90
2019-01-12T16:05:21.269Z,1.80
2019-01-12T16:07:49.762Z,1.80
2019-01-12T16:10:18.300Z,1.80
2019-01-12T16:12:47.089Z,1.80
2019-01-12T16:15:18.470Z,1.80
2019-01-12T16:17:47.026Z,1.80
2019-01-12T16:20:21.301Z,1.80
2019-01-12T16:22:49.794Z,1.80
2019-01-12T16:25:18.265Z,1.80
2019-01-12T16:27:46.893Z,1.80
2019-01-12T16:30:17.630Z,1.80
2019-01-12T16:32:46.156Z,1.80
2019-01-12T16:35:14.793Z,1.90
2019-01-12T16:37:43.524Z,1.90
2019-01-12T16:40:17.963Z,1.90
2019-01-12T16:42:49.488Z,1.90
2019-01-12T16:45:18.116Z,1.90
2019-01-12T16:47:56.643Z,1.90
2019-01-12T16:50:25.112Z,1.90
2019-01-12T16:52:53.617Z,1.90
2019-01-12T16:55:22.093Z,1.90
2019-01-12T16:57:50.572Z,1.90
2019-01-12T17:00:22.312Z,1.90
2019-01-12T17:02:50.872Z,1.90
2019-01-12T17:05:19.529Z,1.90
2019-01-12T17:07:48.262Z,1.90
2019-01-12T17:10:19.465Z,1.90
2019-01-12T17:12:48.034Z,1.90
2019-01-12T17:15:18.442Z,1.90
2019-01-12T17:17:46.966Z,1.90
2019-01-12T17:20:19.291Z,1.90
2019-01-12T17:22:49.296Z,1.90
2019-01-12T17:25:17.833Z,1.90
2019-01-12T17:27:46.400Z,1.90
2019-01-12T17:30:18.171Z,1.90
2019-01-12T17:32:46.832Z,1.90
2019-01-12T17:35:15.580Z,1.90
2019-01-12T17:37:44.791Z,1.80
2019-01-12T17:40:14.916Z,1.80
2019-01-12T17:42:43.415Z,1.80
2019-01-12T17:45:20.408Z,1.70
2019-01-12T17:47:48.914Z,1.70
2019-01-12T17:50:19.607Z,1.70
2019-01-12T17:52:48.213Z,1.80
2019-01-12T17:55:21.964Z,1.80
2019-01-12T17:57:50.500Z,1.80
2019-01-12T18:00:41.377Z,1.80
2019-01-12T18:03:09.841Z,1.80
2019-01-12T18:05:38.314Z,1.80
2019-01-12T18:08:06.899Z,1.80
2019-01-12T18:10:35.380Z,1.90
2019-01-12T18:13:03.924Z,1.90
2019-01-12T18:15:32.426Z,1.80
2019-01-12T18:18:00.881Z,1.80
2019-01-12T18:20:29.446Z,1.80
2019-01-12T18:22:57.943Z,1.80
2019-01-12T18:25:26.502Z,1.80
2019-01-12T18:27:54.997Z,1.70
2019-01-12T18:30:26.588Z,1.70
2019-01-12T18:32:55.108Z,1.60
2019-01-12T18:35:23.968Z,1.60
2019-01-12T18:37:52.448Z,1.60
2019-01-12T18:40:21.779Z,1.60
2019-01-12T18:42:50.440Z,1.60
2019-01-12T18:45:20.512Z,1.60
2019-01-12T18:47:49.146Z,1.60
2019-01-12T18:50:20.360Z,1.50
2019-01-12T18:52:48.930Z,1.50
2019-01-12T18:55:17.477Z,1.50
2019-01-12T18:57:46.015Z,1.60
2019-01-12T19:00:23.152Z,1.60
2019-01-12T19:02:52.118Z,1.60
2019-01-12T19:05:20.824Z,1.60
2019-01-12T19:07:49.411Z,1.60
2019-01-12T19:10:18.014Z,1.70
2019-01-12T19:12:46.486Z,1.70
2019-01-12T19:15:26.612Z,1.70
2019-01-12T19:17:55.295Z,1.60
2019-01-12T19:20:23.988Z,1.60
2019-01-12T19:22:52.645Z,1.60
2019-01-12T19:25:21.201Z,1.60
2019-01-12T19:27:49.683Z,1.60
2019-01-12T19:30:22.428Z,1.60
2019-01-12T19:32:51.091Z,1.60
2019-01-12T19:35:19.625Z,1.60
2019-01-12T19:37:48.124Z,1.50
2019-01-12T19:40:19.297Z,1.50
2019-01-12T19:42:47.854Z,1.50
2019-01-12T19:45:17.092Z,1.50
2019-01-12T19:47:45.701Z,1.50
2019-01-12T19:50:17.296Z,1.50
2019-01-12T19:52:46.024Z,1.60
2019-01-12T19:55:14.484Z,1.60
2019-01-12T19:57:43.016Z,1.60
2019-01-12T20:00:14.560Z,1.60
2019-01-12T20:02:43.121Z,1.60
2019-01-12T20:05:11.749Z,1.60
2019-01-12T20:07:40.314Z,1.70
2019-01-12T20:10:12.457Z,1.70
2019-01-12T20:12:40.977Z,1.70
2019-01-12T20:15:13.088Z,1.70
2019-01-12T20:17:41.561Z,1.70
2019-01-12T20:20:13.016Z,1.70
2019-01-12T20:22:41.565Z,1.70
2019-01-12T20:25:13.360Z,1.70
2019-01-12T20:27:41.852Z,1.70
2019-01-12T20:30:16.040Z,1.70
2019-01-12T20:33:04.956Z,1.70
2019-01-12T20:35:48.228Z,1.70
2019-01-12T20:38:22.427Z,1.70
2019-01-12T20:40:59.585Z,1.70
2019-01-12T20:43:36.890Z,1.80
2019-01-12T20:46:20.248Z,1.80
2019-01-12T20:49:06.845Z,1.80
2019-01-12T20:51:56.216Z,1.80
2019-01-12T20:54:42.391Z,1.80
2019-01-12T20:57:37.796Z,1.80
2019-01-12T21:00:24.512Z,1.80
2019-01-12T21:03:08.018Z,1.80
2019-01-12T21:05:44.820Z,1.70
2019-01-12T21:08:22.381Z,1.70
2019-01-12T21:11:02.831Z,1.70
2019-01-12T21:13:37.313Z,1.60
2019-01-12T21:16:08.957Z,1.60
2019-01-12T21:18:37.429Z,1.60
2019-01-12T21:21:05.904Z,1.50
2019-01-12T21:23:34.474Z,1.40
2019-01-12T21:26:02.972Z,1.40
2019-01-12T21:28:31.470Z,1.30
2019-01-12T21:30:59.941Z,1.30
2019-01-12T21:33:28.423Z,1.20
2019-01-12T21:35:56.894Z,1.20
2019-01-12T21:38:25.397Z,1.20
2019-01-12T21:40:53.860Z,1.10
2019-01-12T21:43:22.328Z,1.00
2019-01-12T21:45:50.845Z,1.00
2019-01-12T21:48:19.440Z,1.10
2019-01-12T21:50:47.909Z,1.00
2019-01-12T21:53:16.485Z,0.90
2019-01-12T21:55:45.033Z,0.90
2019-01-12T21:58:13.496Z,0.80
2019-01-12T22:00:42.062Z,0.80
2019-01-12T22:03:10.608Z,0.80
2019-01-12T22:05:39.077Z,0.90
2019-01-12T22:08:07.570Z,0.90
2019-01-12T22:10:36.045Z,1.00
2019-01-12T22:13:04.660Z,1.00
2019-01-12T22:15:33.170Z,1.00
2019-01-12T22:18:01.820Z,1.00
2019-01-12T22:20:30.301Z,1.00
2019-01-12T22:22:58.795Z,0.90
2019-01-12T22:25:27.316Z,0.90
2019-01-12T22:27:55.957Z,0.90
2019-01-12T22:30:24.502Z,1.00
2019-01-12T22:32:52.992Z,0.90
2019-01-12T22:35:21.462Z,1.00
2019-01-12T22:37:50.068Z,1.00
2019-01-12T22:40:21.576Z,1.00
2019-01-12T22:42:50.048Z,1.00
2019-01-12T22:45:18.677Z,1.10
2019-01-12T22:47:47.168Z,1.10
2019-01-12T22:50:16.753Z,1.00
2019-01-12T22:52:45.506Z,1.00
2019-01-12T22:55:14.836Z,1.00
2019-01-12T22:57:43.589Z,1.00
2019-01-12T23:00:30.448Z,1.10
2019-01-12T23:02:59.040Z,1.10
2019-01-12T23:05:27.508Z,1.00
2019-01-12T23:07:56.023Z,1.00
2019-01-12T23:10:24.561Z,1.00
2019-01-12T23:12:53.064Z,1.00
2019-01-12T23:15:21.520Z,1.00
2019-01-12T23:17:50.009Z,1.10
2019-01-12T23:20:18.561Z,1.10
2019-01-12T23:22:47.184Z,1.10
2019-01-12T23:25:15.680Z,1.10
2019-01-12T23:27:44.374Z,1.10
2019-01-12T23:30:17.860Z,1.10
2019-01-12T23:32:46.353Z,1.10
2019-01-12T23:35:14.879Z,1.00
2019-01-12T23:37:43.407Z,0.90
2019-01-12T23:40:13.604Z,0.90
2019-01-12T23:42:42.260Z,0.90
2019-01-12T23:45:15.437Z,0.90
2019-01-12T23:47:43.933Z,0.90
2019-01-12T23:50:13.749Z,0.90
2019-01-12T23:52:42.277Z,0.90
2019-01-12T23:55:10.891Z,0.90
2019-01-12T23:57:39.451Z,0.80
